Seabeck, Washington
Current Conditions -  °F | °C
As of 11:15 PM on Thursday 18 Dec 2014 (Local Time) from KPWT Reporting Station
Broken Clouds Broken Clouds  
Wind Chill: 41°   Ceiling: 5000
Heat Index: 46°   Visibility: 10mi
Dew Point: 46°   Wind: 12mph
Humidity: 100%   Direction: 200°SSW
Pressure: 29.78"   Gusts: NA
Location:  47.64°N, 122.83°W
Report Text: KPWT 190715Z AUTO 20010KT 10SM FEW036 BKN050 08/08 A2978 RMK AO1 P0002
Loading
Personal Weather Stations






























Interactive Weather Map New forecast layout! Learn more

10-Day Weather Forecast

Advertisements
Track Severe Weather on mobile